createdAt,value
2024-05-09T00:00:29.725Z,0
2024-05-09T00:01:19.556Z,0
2024-05-09T00:02:21.608Z,0
2024-05-09T00:03:20.059Z,0
2024-05-09T00:04:22.205Z,0
2024-05-09T00:05:21.542Z,0
2024-05-09T00:06:17.713Z,0
2024-05-09T00:07:19.717Z,0
2024-05-09T00:08:18.992Z,0
2024-05-09T00:09:22.165Z,0
2024-05-09T00:10:25.529Z,0
2024-05-09T00:11:17.454Z,0
2024-05-09T00:12:16.715Z,0
2024-05-09T00:13:16.988Z,0
2024-05-09T00:14:16.859Z,0
2024-05-09T00:15:17.748Z,0
2024-05-09T00:16:17.800Z,0
2024-05-09T00:17:18.490Z,0
2024-05-09T00:18:16.601Z,0
2024-05-09T00:19:16.682Z,0
2024-05-09T00:20:23.955Z,0
2024-05-09T00:21:17.674Z,0
2024-05-09T00:22:16.576Z,0
2024-05-09T00:23:17.374Z,0
2024-05-09T00:24:16.938Z,0
2024-05-09T00:25:17.568Z,0
2024-05-09T00:26:16.902Z,0
2024-05-09T00:27:17.880Z,0
2024-05-09T00:28:17.145Z,0
2024-05-09T00:29:17.529Z,0
2024-05-09T00:30:24.375Z,0
2024-05-09T00:31:17.091Z,0
2024-05-09T00:32:17.586Z,0
2024-05-09T00:33:17.910Z,0
2024-05-09T00:34:17.815Z,0
2024-05-09T00:35:17.650Z,0
2024-05-09T00:36:17.007Z,0
2024-05-09T00:37:17.202Z,0
2024-05-09T00:38:17.548Z,0
2024-05-09T00:39:16.680Z,0
2024-05-09T00:40:26.531Z,0
2024-05-09T00:41:19.533Z,0
2024-05-09T00:42:17.642Z,0
2024-05-09T00:43:17.604Z,0
2024-05-09T00:44:18.249Z,0
2024-05-09T00:45:18.203Z,0
2024-05-09T00:46:16.288Z,0
2024-05-09T00:47:16.750Z,0
2024-05-09T00:48:19.746Z,0
2024-05-09T00:49:16.757Z,0
2024-05-09T00:50:22.924Z,0
2024-05-09T00:51:16.291Z,0
2024-05-09T00:52:16.270Z,0
2024-05-09T00:53:18.431Z,0
2024-05-09T00:54:17.538Z,0
2024-05-09T00:55:16.878Z,0
2024-05-09T00:56:17.006Z,0
2024-05-09T00:57:17.987Z,0
2024-05-09T00:58:17.901Z,0
2024-05-09T00:59:17.149Z,0
2024-05-09T01:00:26.525Z,0
2024-05-09T01:01:16.833Z,0
2024-05-09T01:02:18.564Z,0
2024-05-09T01:03:18.016Z,0
2024-05-09T01:04:16.832Z,0
2024-05-09T01:05:17.338Z,0
2024-05-09T01:06:18.466Z,0
2024-05-09T01:07:16.469Z,0
2024-05-09T01:08:16.608Z,0
2024-05-09T01:09:16.796Z,0
2024-05-09T01:10:24.121Z,0
2024-05-09T01:11:16.722Z,0
2024-05-09T01:12:18.026Z,0
2024-05-09T01:13:17.113Z,0
2024-05-09T01:14:18.265Z,0
2024-05-09T01:15:16.688Z,0
2024-05-09T01:16:17.088Z,0
2024-05-09T01:17:18.431Z,0
2024-05-09T01:18:17.260Z,0
2024-05-09T01:19:17.179Z,0
2024-05-09T01:20:23.035Z,0
2024-05-09T01:21:17.154Z,0
2024-05-09T01:22:18.010Z,0
2024-05-09T01:23:18.634Z,0
2024-05-09T01:24:18.475Z,0
2024-05-09T01:25:17.177Z,0
2024-05-09T01:26:16.310Z,0
2024-05-09T01:27:16.378Z,0
2024-05-09T01:28:16.650Z,0
2024-05-09T01:29:16.682Z,0
2024-05-09T01:30:24.298Z,0
2024-05-09T01:31:17.303Z,0
2024-05-09T01:32:17.348Z,0
2024-05-09T01:33:16.680Z,0
2024-05-09T01:34:17.733Z,0
2024-05-09T01:35:17.044Z,0
2024-05-09T01:36:17.061Z,0
2024-05-09T01:37:17.197Z,0
2024-05-09T01:38:17.590Z,0
2024-05-09T01:39:16.374Z,0
2024-05-09T01:40:22.093Z,0
2024-05-09T01:41:17.333Z,0
2024-05-09T01:42:16.580Z,0
2024-05-09T01:43:16.693Z,0
2024-05-09T01:44:16.714Z,0
2024-05-09T01:45:17.362Z,0
2024-05-09T01:46:17.484Z,0
2024-05-09T01:47:16.875Z,0
2024-05-09T01:48:16.836Z,0
2024-05-09T01:49:16.923Z,0
2024-05-09T01:50:22.531Z,0
2024-05-09T01:51:17.519Z,0
2024-05-09T01:52:16.508Z,0
2024-05-09T01:53:16.686Z,0
2024-05-09T01:54:18.090Z,0
2024-05-09T01:55:17.520Z,0
2024-05-09T01:56:16.921Z,0
2024-05-09T01:57:16.794Z,0
2024-05-09T01:58:16.940Z,0
2024-05-09T01:59:18.259Z,0
2024-05-09T02:00:26.291Z,0
2024-05-09T02:01:17.080Z,0
2024-05-09T02:02:18.778Z,0
2024-05-09T02:03:17.831Z,0
2024-05-09T02:04:16.768Z,0
2024-05-09T02:05:17.357Z,0
2024-05-09T02:06:16.243Z,0
2024-05-09T02:07:17.463Z,0
2024-05-09T02:08:17.030Z,0
2024-05-09T02:09:16.695Z,0
2024-05-09T02:10:23.456Z,0
2024-05-09T02:11:18.272Z,0
2024-05-09T02:12:17.319Z,0
2024-05-09T02:13:17.315Z,0
2024-05-09T02:14:15.308Z,0
2024-05-09T02:15:17.296Z,0
2024-05-09T02:16:15.508Z,0
2024-05-09T02:17:17.961Z,0
2024-05-09T02:18:18.890Z,0
2024-05-09T02:19:16.958Z,0
2024-05-09T02:20:26.799Z,0
2024-05-09T02:21:16.683Z,0
2024-05-09T02:22:16.614Z,0
2024-05-09T02:23:17.626Z,0
2024-05-09T02:24:16.783Z,0
2024-05-09T02:25:17.540Z,0
2024-05-09T02:26:17.605Z,0
2024-05-09T02:27:16.642Z,0
2024-05-09T02:28:16.798Z,0
2024-05-09T02:29:16.843Z,0
2024-05-09T02:30:25.862Z,0
2024-05-09T02:31:16.555Z,0
2024-05-09T02:32:17.810Z,0
2024-05-09T02:33:17.265Z,0
2024-05-09T02:34:18.274Z,0
2024-05-09T02:35:16.749Z,0
2024-05-09T02:36:16.966Z,0
2024-05-09T02:37:17.019Z,0
2024-05-09T02:38:17.262Z,0
2024-05-09T02:39:18.217Z,0
2024-05-09T02:40:25.236Z,0
2024-05-09T02:41:16.930Z,0
2024-05-09T02:42:17.983Z,0
2024-05-09T02:43:17.100Z,0
2024-05-09T02:44:18.296Z,0
2024-05-09T02:45:16.697Z,0
2024-05-09T02:46:17.028Z,0
2024-05-09T02:47:17.322Z,0
2024-05-09T02:48:16.509Z,0
2024-05-09T02:49:16.446Z,0
2024-05-09T02:50:26.592Z,0
2024-05-09T02:51:16.759Z,0
2024-05-09T02:52:16.765Z,0.83
2024-05-09T02:53:17.771Z,0.83
2024-05-09T02:54:16.978Z,0.83
2024-05-09T02:55:17.445Z,1.67
2024-05-09T02:56:16.645Z,1.67
2024-05-09T02:57:16.589Z,1.67
2024-05-09T02:58:17.751Z,2.5
2024-05-09T02:59:16.835Z,3.33
2024-05-09T03:00:22.796Z,4.17
2024-05-09T03:01:16.369Z,5
2024-05-09T03:02:18.284Z,5.83
2024-05-09T03:03:16.459Z,6.67
2024-05-09T03:04:16.663Z,8.33
2024-05-09T03:05:17.235Z,10
2024-05-09T03:06:18.230Z,10.83
2024-05-09T03:07:17.846Z,12.5
2024-05-09T03:08:16.221Z,14.17
2024-05-09T03:09:16.545Z,15.83
2024-05-09T03:10:22.295Z,17.5
2024-05-09T03:11:16.427Z,19.17
2024-05-09T03:12:17.559Z,21.67
2024-05-09T03:13:16.678Z,24.17
2024-05-09T03:14:17.792Z,25.83
2024-05-09T03:15:17.302Z,28.33
2024-05-09T03:16:16.476Z,30.83
2024-05-09T03:17:16.737Z,33.33
2024-05-09T03:18:17.842Z,35
2024-05-09T03:19:17.991Z,36.67
2024-05-09T03:20:23.780Z,39.17
2024-05-09T03:21:16.692Z,42.5
2024-05-09T03:22:17.888Z,45.83
2024-05-09T03:23:18.022Z,49.17
2024-05-09T03:24:18.082Z,51.67
2024-05-09T03:25:17.819Z,55
2024-05-09T03:26:17.056Z,58.33
2024-05-09T03:27:17.226Z,60.83
2024-05-09T03:28:18.140Z,64.17
2024-05-09T03:29:16.566Z,66.67
2024-05-09T03:30:29.297Z,70.83
2024-05-09T03:31:17.113Z,74.17
2024-05-09T03:32:17.147Z,77.5
2024-05-09T03:33:18.642Z,80.83
2024-05-09T03:34:17.324Z,84.17
2024-05-09T03:35:16.911Z,87.5
2024-05-09T03:36:16.991Z,90.83
2024-05-09T03:37:17.058Z,93.33
2024-05-09T03:38:18.489Z,95.83
2024-05-09T03:39:16.456Z,99.17
2024-05-09T03:40:23.407Z,101.67
2024-05-09T03:41:16.446Z,105
2024-05-09T03:42:16.641Z,107.5
2024-05-09T03:43:16.904Z,108.33
2024-05-09T03:44:17.223Z,108.33
2024-05-09T03:45:16.889Z,106.67
2024-05-09T03:46:16.905Z,105
2024-05-09T03:47:17.883Z,104.17
2024-05-09T03:49:17.266Z,103.33
2024-05-09T03:50:25.267Z,106.67
2024-05-09T03:51:16.977Z,111.67
2024-05-09T03:52:17.204Z,120.83
2024-05-09T03:53:17.288Z,131.67
2024-05-09T03:54:16.673Z,144.17
2024-05-09T03:55:18.100Z,158.33
2024-05-09T03:56:17.384Z,172.5
2024-05-09T03:57:16.732Z,186.67
2024-05-09T03:58:16.884Z,204.17
2024-05-09T03:59:16.926Z,226.67
2024-05-09T04:00:22.633Z,251.67
2024-05-09T04:01:16.524Z,277.5
2024-05-09T04:02:18.205Z,301.67
2024-05-09T04:03:16.917Z,322.5
2024-05-09T04:04:16.725Z,336.67
2024-05-09T04:05:18.229Z,350.83
2024-05-09T04:06:16.309Z,367.5
2024-05-09T04:07:19.763Z,386.67
2024-05-09T04:08:17.864Z,404.17
2024-05-09T04:09:16.926Z,418.33
2024-05-09T04:10:27.668Z,435
2024-05-09T04:11:16.899Z,452.5
2024-05-09T04:12:17.199Z,476.67
2024-05-09T04:13:54.195Z,490
2024-05-09T04:14:17.425Z,491.67
2024-05-09T04:15:17.931Z,493.33
2024-05-09T04:16:16.896Z,503.33
2024-05-09T04:17:16.878Z,516.67
2024-05-09T04:18:18.114Z,530.83
2024-05-09T04:19:17.154Z,550.83
2024-05-09T04:20:29.119Z,573.33
2024-05-09T04:21:16.850Z,596.67
2024-05-09T04:22:16.791Z,618.33
2024-05-09T04:23:16.937Z,640
2024-05-09T04:24:17.036Z,652.5
2024-05-09T04:25:18.925Z,668.33
2024-05-09T04:26:17.971Z,694.17
2024-05-09T04:27:17.038Z,722.5
2024-05-09T04:28:17.320Z,741.67
2024-05-09T04:29:17.459Z,743.33
2024-05-09T04:30:25.490Z,726.67
2024-05-09T04:31:16.438Z,684.17
2024-05-09T04:32:16.608Z,634.17
2024-05-09T04:33:16.554Z,610
2024-05-09T04:34:18.721Z,619.17
2024-05-09T04:35:21.921Z,654.17
2024-05-09T04:36:17.728Z,687.5
2024-05-09T04:37:47.955Z,725
2024-05-09T04:38:17.130Z,773.33
2024-05-09T04:39:17.251Z,810.83
2024-05-09T04:40:24.458Z,784.17
2024-05-09T04:41:17.826Z,755.83
2024-05-09T04:42:17.822Z,733.33
2024-05-09T04:43:16.995Z,710.83
2024-05-09T04:44:18.137Z,677.5
2024-05-09T04:45:17.406Z,640.83
2024-05-09T04:46:16.633Z,618.33
2024-05-09T04:47:16.531Z,613.33
2024-05-09T04:48:17.825Z,620.83
2024-05-09T04:49:16.709Z,645
2024-05-09T04:50:25.469Z,679.17
2024-05-09T04:51:15.631Z,718.33
2024-05-09T04:52:16.753Z,755
2024-05-09T04:53:17.353Z,780
2024-05-09T04:54:26.432Z,808.33
2024-05-09T04:55:17.384Z,826.67
2024-05-09T04:56:16.656Z,850.83
2024-05-09T04:57:17.644Z,887.5
2024-05-09T04:58:17.719Z,935
2024-05-09T04:59:16.857Z,986.67
2024-05-09T05:00:21.929Z,1040
2024-05-09T05:01:16.387Z,1077.5
2024-05-09T05:02:17.381Z,1080.83
2024-05-09T05:03:17.818Z,1057.5
2024-05-09T05:04:16.909Z,1040
2024-05-09T05:05:17.011Z,1046.67
2024-05-09T05:06:17.908Z,1071.67
2024-05-09T05:07:16.331Z,1096.67
2024-05-09T05:08:17.515Z,1109.17
2024-05-09T05:09:18.247Z,1129.17
2024-05-09T05:10:21.643Z,1165.83
2024-05-09T05:11:20.835Z,1225
2024-05-09T05:12:52.772Z,1321.67
2024-05-09T05:13:18.941Z,1417.5
2024-05-09T05:14:17.952Z,1493.33
2024-05-09T05:15:17.162Z,1510.83
2024-05-09T05:16:17.170Z,1480
2024-05-09T05:17:18.211Z,1445.83
2024-05-09T05:18:17.193Z,1384.17
2024-05-09T05:19:17.796Z,1294.17
2024-05-09T05:20:26.964Z,1192.5
2024-05-09T05:21:17.334Z,1122.5
2024-05-09T05:22:17.339Z,1087.5
2024-05-09T05:23:16.772Z,1093.33
2024-05-09T05:24:16.390Z,1114.17
2024-05-09T05:25:16.575Z,1147.5
2024-05-09T05:26:16.636Z,1179.17
2024-05-09T05:27:16.828Z,1195.83
2024-05-09T05:28:16.888Z,1199.17
2024-05-09T05:29:20.258Z,1223.33
2024-05-09T05:30:24.827Z,1267.5
2024-05-09T05:31:17.045Z,1301.67
2024-05-09T05:32:17.427Z,1353.33
2024-05-09T05:33:16.681Z,1400
2024-05-09T05:34:16.479Z,1470
2024-05-09T05:35:16.867Z,1580.83
2024-05-09T05:36:17.149Z,1695.83
2024-05-09T05:37:17.241Z,1758.33
2024-05-09T05:38:17.132Z,1824.17
2024-05-09T05:39:16.380Z,1886.67
2024-05-09T05:40:27.561Z,1915
2024-05-09T05:41:16.678Z,1947.5
2024-05-09T05:42:16.766Z,1951.67
2024-05-09T05:43:16.852Z,1943.33
2024-05-09T05:44:54.777Z,1945.83
2024-05-09T05:45:18.211Z,1971.67
2024-05-09T05:46:17.354Z,1974.17
2024-05-09T05:47:16.484Z,2009.17
2024-05-09T05:48:17.963Z,2070.83
2024-05-09T05:49:16.677Z,2133.33
2024-05-09T05:50:24.670Z,2201.67
2024-05-09T05:51:16.889Z,2245.83
2024-05-09T05:52:17.651Z,2331.67
2024-05-09T05:53:17.032Z,2471.67
2024-05-09T05:54:16.985Z,2594.17
2024-05-09T05:55:22.150Z,2730.83
2024-05-09T05:56:49.375Z,2245.83
2024-05-09T05:57:38.454Z,2331.67
2024-05-09T05:58:29.448Z,2471.67
2024-05-09T05:59:46.415Z,2594.17
2024-05-09T06:00:49.471Z,2730.83
2024-05-09T06:01:44.714Z,2245.83
2024-05-09T06:02:17.176Z,3270
2024-05-09T06:03:20.380Z,2471.67
2024-05-09T06:04:16.310Z,2594.17
2024-05-09T06:05:47.499Z,2730.83
2024-05-09T06:06:26.607Z,2245.83
2024-05-09T06:07:20.910Z,3372.5
2024-05-09T06:08:17.016Z,3392.5
2024-05-09T06:09:17.005Z,3592.5
2024-05-09T06:10:21.651Z,3751.67
2024-05-09T06:11:16.417Z,3907.5
2024-05-09T06:12:17.374Z,4307.5
2024-05-09T06:13:16.277Z,4686.67
2024-05-09T06:14:16.623Z,4927.5
2024-05-09T06:15:16.766Z,4415.83
2024-05-09T06:16:16.685Z,4278.33
2024-05-09T06:17:16.802Z,4069.17
2024-05-09T06:18:16.716Z,3919.17
2024-05-09T06:19:16.787Z,3705.83
2024-05-09T06:20:23.907Z,3817.5
2024-05-09T06:21:17.534Z,4985
2024-05-09T06:22:17.113Z,5489.17
2024-05-09T06:23:16.315Z,5547.5
2024-05-09T06:24:17.480Z,5610
2024-05-09T06:25:16.567Z,6415
2024-05-09T06:26:16.689Z,6808.33
2024-05-09T06:27:16.653Z,7233.33
2024-05-09T06:28:17.782Z,7465
2024-05-09T06:29:16.935Z,7644.17
2024-05-09T06:30:25.808Z,7635
2024-05-09T06:31:16.244Z,7875.83
2024-05-09T06:32:16.396Z,8131.67
2024-05-09T06:33:16.890Z,8212.5
2024-05-09T06:34:16.487Z,8122.5
2024-05-09T06:35:16.297Z,8104.17
2024-05-09T06:36:17.441Z,8324.17
2024-05-09T06:37:16.547Z,9033.33
2024-05-09T06:38:16.592Z,6428.33
2024-05-09T06:39:16.617Z,7250
2024-05-09T06:40:21.454Z,7683.33
2024-05-09T06:41:16.200Z,6349.17
2024-05-09T06:42:16.403Z,3717.5
2024-05-09T06:43:18.518Z,3720
2024-05-09T06:44:17.595Z,3760
2024-05-09T06:45:16.702Z,3607.5
2024-05-09T06:46:16.731Z,3378.33
2024-05-09T06:47:16.833Z,3268.33
2024-05-09T06:48:16.873Z,3371.67
2024-05-09T06:49:16.962Z,3696.67
2024-05-09T06:50:23.708Z,4817.5
2024-05-09T06:51:18.051Z,6326.67
2024-05-09T06:52:18.013Z,4588.33
2024-05-09T06:53:17.415Z,4202.5
2024-05-09T06:54:17.235Z,4355.83
2024-05-09T06:55:17.390Z,5066.67
2024-05-09T06:56:16.529Z,4635
2024-05-09T06:57:17.408Z,4444.17
2024-05-09T06:58:17.535Z,4341.67
2024-05-09T06:59:16.623Z,4297.5
2024-05-09T07:00:26.849Z,4160
2024-05-09T07:01:17.109Z,4172.5
2024-05-09T07:02:17.250Z,4024.17
2024-05-09T07:03:18.746Z,3885
2024-05-09T07:04:17.237Z,3864.17
2024-05-09T07:05:17.431Z,3776.67
2024-05-09T07:06:16.501Z,3717.5
2024-05-09T07:07:16.470Z,3566.67
2024-05-09T07:08:16.792Z,3552.5
2024-05-09T07:09:16.911Z,3795
2024-05-09T07:10:22.061Z,3896.67
2024-05-09T07:11:16.414Z,3865.83
2024-05-09T07:12:16.481Z,3793.33
2024-05-09T07:13:17.547Z,3741.67
2024-05-09T07:14:16.743Z,3738.33
2024-05-09T07:15:16.967Z,3795.83
2024-05-09T07:16:18.238Z,3895
2024-05-09T07:17:17.293Z,3979.17
2024-05-09T07:18:18.029Z,4149.17
2024-05-09T07:19:17.631Z,4988.33
2024-05-09T07:20:23.518Z,5713.33
2024-05-09T07:21:16.734Z,5805.83
2024-05-09T07:22:16.721Z,5850.83
2024-05-09T07:23:16.808Z,5869.17
2024-05-09T07:24:17.738Z,5837.5
2024-05-09T07:25:16.968Z,5633.33
2024-05-09T07:26:17.175Z,5566.67
2024-05-09T07:27:17.063Z,5577.5
2024-05-09T07:28:17.898Z,6409.17
2024-05-09T07:29:18.039Z,5904.17
2024-05-09T07:30:23.772Z,5636.67
2024-05-09T07:31:18.255Z,6050.83
2024-05-09T07:32:16.710Z,6147.5
2024-05-09T07:33:16.867Z,8260.83
2024-05-09T07:34:17.740Z,9226.67
2024-05-09T07:35:18.266Z,12106.67
2024-05-09T07:36:18.256Z,9538.33
2024-05-09T07:37:16.192Z,8486.67
2024-05-09T07:38:17.453Z,9655
2024-05-09T07:39:16.435Z,26245.83
2024-05-09T07:40:28.204Z,26180
2024-05-09T07:41:16.695Z,26107.5
2024-05-09T07:42:16.547Z,27869.17
2024-05-09T07:43:16.771Z,9826.67
2024-05-09T07:44:16.947Z,22007.5
2024-05-09T07:47:14.216Z,22993.33
2024-05-09T07:48:28.977Z,26275.83
2024-05-09T07:50:56.165Z,14496.67
2024-05-09T07:53:30.028Z,6907.5
2024-05-09T07:53:37.909Z,6502.5
2024-05-09T07:54:17.091Z,6794.17
2024-05-09T07:55:17.406Z,6461.67
2024-05-09T07:56:18.281Z,6384.17
2024-05-09T07:57:17.400Z,5768.33
2024-05-09T07:58:18.185Z,5572.5
2024-05-09T07:59:17.279Z,5535
2024-05-09T08:00:23.710Z,5730.83
2024-05-09T08:01:16.354Z,6092.5
2024-05-09T08:02:17.341Z,6965
2024-05-09T08:03:17.336Z,11629.17
2024-05-09T08:04:17.752Z,9244.17
2024-05-09T08:05:17.243Z,14164.17
2024-05-09T08:06:17.300Z,12809.17
2024-05-09T08:07:17.322Z,18874.17
2024-05-09T08:08:20.383Z,21135.83
2024-05-09T08:09:20.653Z,12305.83
2024-05-09T08:11:17.366Z,28471.67
2024-05-09T08:12:18.375Z,11640
2024-05-09T08:13:16.554Z,11840
2024-05-09T08:14:16.579Z,9855.83
2024-05-09T08:15:16.839Z,9883.33
2024-05-09T08:16:16.942Z,10593.33
2024-05-09T08:17:17.051Z,12039.17
2024-05-09T08:18:17.352Z,19300.83
2024-05-09T08:19:17.162Z,23976.67
2024-05-09T08:20:26.880Z,16665.83
2024-05-09T08:21:16.550Z,33020
2024-05-09T08:22:17.635Z,32879.16
2024-05-09T08:23:17.772Z,16514.17
2024-05-09T08:24:16.611Z,17018.33
2024-05-09T08:25:18.123Z,15425
2024-05-09T08:26:17.122Z,14136.67
2024-05-09T08:27:17.323Z,14858.33
2024-05-09T08:28:17.572Z,11818.33
2024-05-09T08:29:16.194Z,10943.33
2024-05-09T08:30:24.624Z,10164.17
2024-05-09T08:31:17.140Z,9910
2024-05-09T08:32:17.419Z,10276.67
2024-05-09T08:33:17.684Z,9114.17
2024-05-09T08:34:16.783Z,8288.33
2024-05-09T08:35:16.932Z,8379.17
2024-05-09T08:36:18.110Z,9230.83
2024-05-09T08:37:22.366Z,13029.17
2024-05-09T08:38:17.441Z,14745
2024-05-09T08:39:17.588Z,12795.83
2024-05-09T08:40:24.137Z,11350
2024-05-09T08:41:17.617Z,15422.5
2024-05-09T08:42:16.603Z,18633.33
2024-05-09T08:43:16.902Z,37395
2024-05-09T08:44:18.876Z,37325.83
2024-05-09T08:45:17.132Z,37422.5
2024-05-09T08:46:16.420Z,39284.16
2024-05-09T08:47:16.338Z,36500.83
2024-05-09T08:48:17.601Z,36363.33
2024-05-09T08:49:17.555Z,40264.16
2024-05-09T08:50:28.760Z,43573.33
2024-05-09T08:51:16.740Z,40256.66
2024-05-09T08:52:19.818Z,39361.66
2024-05-09T08:53:16.870Z,42628.33
2024-05-09T08:54:16.984Z,39535.83
2024-05-09T08:55:17.092Z,31583.33
2024-05-09T08:56:20.101Z,27933.33
2024-05-09T08:57:19.167Z,28528.33
2024-05-09T08:58:17.516Z,31229.17
2024-05-09T08:59:21.333Z,35127.5
2024-05-09T09:00:29.064Z,38624.16
2024-05-09T09:01:17.729Z,42388.33
2024-05-09T09:02:17.275Z,40960.83
2024-05-09T09:03:17.428Z,45955.83
2024-05-09T09:04:18.547Z,46559.16
2024-05-09T09:05:17.021Z,44659.16
2024-05-09T09:06:16.737Z,44679.16
2024-05-09T09:07:18.757Z,40258.33
2024-05-09T09:08:22.708Z,35816.66
2024-05-09T09:09:16.707Z,32470
2024-05-09T09:10:28.893Z,31253.33
2024-05-09T09:11:19.047Z,36491.66
2024-05-09T09:12:19.001Z,46188.33
2024-05-09T09:13:19.214Z,45855.83
2024-05-09T09:14:19.076Z,52552.5
2024-05-09T09:15:18.165Z,54612.5
2024-05-09T09:16:18.531Z,46330
2024-05-09T09:17:18.535Z,35904.16
2024-05-09T09:18:19.108Z,37914.16
2024-05-09T09:19:18.682Z,44957.5
2024-05-09T09:20:26.201Z,50857.5
2024-05-09T09:21:19.173Z,52667.5
2024-05-09T09:22:18.189Z,53270.83
2024-05-09T09:23:18.147Z,52137.5
2024-05-09T09:24:19.248Z,46869.16
2024-05-09T09:25:19.470Z,41518.33
2024-05-09T09:26:18.471Z,39778.33
2024-05-09T09:27:17.461Z,47910
2024-05-09T09:28:18.591Z,54612.5
2024-05-09T09:29:17.538Z,54612.5
2024-05-09T09:30:31.503Z,54612.5
2024-05-09T09:31:18.084Z,54612.5
2024-05-09T09:32:19.162Z,54612.5
2024-05-09T09:33:19.608Z,54612.5
2024-05-09T09:34:18.485Z,54612.5
2024-05-09T09:35:17.403Z,54612.5
2024-05-09T09:36:17.350Z,54612.5
2024-05-09T09:37:17.584Z,54612.5
2024-05-09T09:38:18.556Z,54612.5
2024-05-09T09:39:18.663Z,54612.5
2024-05-09T09:40:22.309Z,54612.5
2024-05-09T09:41:46.302Z,54612.5
2024-05-09T09:42:18.340Z,54612.5
2024-05-09T09:43:45.276Z,54612.5
2024-05-09T09:44:18.384Z,54612.5
2024-05-09T09:45:17.606Z,54612.5
2024-05-09T09:46:18.548Z,42917.5
2024-05-09T09:47:18.605Z,43633.33
2024-05-09T09:48:17.609Z,52576.66
2024-05-09T09:49:18.605Z,54612.5
2024-05-09T09:50:27.046Z,51605.83
2024-05-09T09:51:19.063Z,44712.5
2024-05-09T09:52:19.255Z,38729.16
2024-05-09T09:53:18.093Z,36619.16
2024-05-09T09:54:18.984Z,33175
2024-05-09T09:55:19.369Z,29543.33
2024-05-09T09:56:18.462Z,32204.17
2024-05-09T09:57:18.499Z,34637.5
2024-05-09T09:58:17.754Z,32220.83
2024-05-09T09:59:18.440Z,30970
2024-05-09T10:00:24.499Z,29599.17
2024-05-09T10:01:17.652Z,27875
2024-05-09T10:02:18.865Z,25859.17
2024-05-09T10:03:18.789Z,24564.17
2024-05-09T10:04:19.015Z,24521.67
2024-05-09T10:05:20.305Z,24684.17
2024-05-09T10:06:19.247Z,23802.5
2024-05-09T10:07:18.074Z,22422.5
2024-05-09T10:08:19.398Z,21614.17
2024-05-09T10:09:18.488Z,21505
2024-05-09T10:10:26.917Z,21653.33
2024-05-09T10:11:17.969Z,21843.33
2024-05-09T10:12:19.005Z,22014.17
2024-05-09T10:13:19.071Z,22232.5
2024-05-09T10:14:19.421Z,22330.83
2024-05-09T10:15:18.483Z,22230
2024-05-09T10:16:19.142Z,22231.67
2024-05-09T10:17:19.302Z,22173.33
2024-05-09T10:18:22.439Z,22174.17
2024-05-09T10:19:18.539Z,22176.67
2024-05-09T10:20:22.096Z,22290.83
2024-05-09T10:21:21.832Z,22247.5
2024-05-09T10:22:18.777Z,22276.67
2024-05-09T10:23:18.808Z,22260
2024-05-09T10:24:19.912Z,22034.17
2024-05-09T10:25:22.380Z,21843.33
2024-05-09T10:26:19.440Z,21820.83
2024-05-09T10:27:22.559Z,21797.5
2024-05-09T10:28:24.999Z,21825.83
2024-05-09T10:29:20.996Z,21795
2024-05-09T10:31:19.466Z,21792.5
2024-05-09T10:32:22.532Z,21890.83
2024-05-09T10:33:20.672Z,21997.5
2024-05-09T10:34:18.589Z,21969.17
2024-05-09T10:35:18.691Z,21993.33
2024-05-09T10:36:17.848Z,22019.17
2024-05-09T10:37:21.900Z,21955.83
2024-05-09T10:38:18.774Z,21941.67
2024-05-09T10:39:22.964Z,21905
2024-05-09T10:40:28.947Z,22068.33
2024-05-09T10:41:19.200Z,22039.17
2024-05-09T10:42:22.412Z,21945.83
2024-05-09T10:43:17.497Z,21988.33
2024-05-09T10:44:22.977Z,22086.67
2024-05-09T10:45:19.199Z,22057.5
2024-05-09T10:46:19.914Z,22015.83
2024-05-09T10:47:18.273Z,22001.67
2024-05-09T10:48:17.478Z,21963.33
2024-05-09T10:49:18.717Z,21925
2024-05-09T10:50:25.541Z,21951.67
2024-05-09T10:51:19.125Z,21990
2024-05-09T10:52:19.707Z,22086.67
2024-05-09T10:53:20.510Z,22057.5
2024-05-09T10:54:17.601Z,22034.17
2024-05-09T10:55:18.007Z,22030.83
2024-05-09T10:56:19.244Z,22113.33
2024-05-09T10:57:18.655Z,22104.17
2024-05-09T10:58:17.808Z,22168.33
2024-05-09T10:59:18.848Z,22203.33
2024-05-09T11:00:27.419Z,22290.83
2024-05-09T11:01:19.636Z,22261.67
2024-05-09T11:02:18.653Z,22139.17
2024-05-09T11:03:18.599Z,22081.67
2024-05-09T11:04:19.695Z,21984.17
2024-05-09T11:05:19.295Z,22030.83
2024-05-09T11:06:19.091Z,22043.33
2024-05-09T11:07:19.423Z,22067.5
2024-05-09T11:08:18.271Z,22077.5
2024-05-09T11:09:17.454Z,22078.33
2024-05-09T11:11:18.041Z,22104.17
2024-05-09T11:12:20.642Z,22111.67
2024-05-09T11:13:18.409Z,22177.5
2024-05-09T11:14:17.414Z,22148.33
2024-05-09T11:15:18.603Z,22112.5
2024-05-09T11:16:18.911Z,22115
2024-05-09T11:17:17.620Z,22052.5
2024-05-09T11:18:19.787Z,22055
2024-05-09T11:19:18.182Z,21968.33
2024-05-09T11:20:26.622Z,22080
2024-05-09T11:21:17.900Z,22035
2024-05-09T11:22:19.021Z,21976.67
2024-05-09T11:23:18.965Z,22002.5
2024-05-09T11:24:18.194Z,21994.17
2024-05-09T11:25:17.604Z,22109.17
2024-05-09T11:26:18.839Z,22062.5
2024-05-09T11:27:19.098Z,22055.83
2024-05-09T11:28:17.453Z,22040.83
2024-05-09T11:29:19.753Z,22038.33
2024-05-09T11:30:24.346Z,22044.17
2024-05-09T11:31:19.245Z,22060
2024-05-09T11:32:18.105Z,21990.83
2024-05-09T11:33:19.333Z,21940.83
2024-05-09T11:34:19.138Z,22000.83
2024-05-09T11:35:19.420Z,21967.5
2024-05-09T11:36:18.734Z,21952.5
2024-05-09T11:37:18.085Z,21915.83
2024-05-09T11:38:19.019Z,21948.33
2024-05-09T11:39:19.239Z,21950
2024-05-09T11:40:25.358Z,21984.17
2024-05-09T11:41:19.122Z,21973.33
2024-05-09T11:42:17.765Z,21947.5
2024-05-09T11:43:19.181Z,21903.33
2024-05-09T11:44:18.226Z,21925
2024-05-09T11:45:18.653Z,21915
2024-05-09T11:46:18.992Z,21876.67
2024-05-09T11:47:18.986Z,21893.33
2024-05-09T11:48:21.106Z,21930.83
2024-05-09T11:49:18.039Z,21940
2024-05-09T11:50:26.963Z,21897.5
2024-05-09T11:51:18.742Z,21929.17
2024-05-09T11:52:18.937Z,21927.5
2024-05-09T11:53:18.132Z,21860.83
2024-05-09T11:54:18.453Z,21843.33
2024-05-09T11:55:28.064Z,21846.67
2024-05-09T11:56:17.837Z,21749.17
2024-05-09T11:57:19.443Z,21795.83
2024-05-09T11:58:18.950Z,21801.67
2024-05-09T11:59:19.027Z,21773.33
2024-05-09T12:00:28.925Z,21790.83
2024-05-09T12:01:18.960Z,21740
2024-05-09T12:02:19.181Z,21745
2024-05-09T12:03:19.487Z,21779.17
2024-05-09T12:04:17.875Z,21754.17
2024-05-09T12:05:18.540Z,21743.33
2024-05-09T12:06:17.618Z,21774.17
2024-05-09T12:07:18.840Z,21725.83
2024-05-09T12:08:19.184Z,21692.5
2024-05-09T12:09:18.397Z,21665.83
2024-05-09T12:10:22.477Z,21658.33
2024-05-09T12:11:18.520Z,21647.5
2024-05-09T12:12:18.580Z,21636.67
2024-05-09T12:13:18.911Z,21640.83
2024-05-09T12:14:19.248Z,21544.17
2024-05-09T12:15:17.935Z,21486.67
2024-05-09T12:16:18.207Z,21488.33
2024-05-09T12:17:19.509Z,21435
2024-05-09T12:18:18.473Z,21245
2024-05-09T12:19:18.807Z,21173.33
2024-05-09T12:20:28.304Z,21222.5
2024-05-09T12:21:18.214Z,21263.33
2024-05-09T12:22:19.289Z,21221.67
2024-05-09T12:23:17.589Z,21171.67
2024-05-09T12:24:18.666Z,21173.33
2024-05-09T12:25:19.375Z,21141.67
2024-05-09T12:26:18.395Z,21106.67
2024-05-09T12:27:18.840Z,21126.67
2024-05-09T12:28:18.325Z,21216.67
2024-05-09T12:29:19.270Z,21226.67
2024-05-09T12:30:32.086Z,21150.83
2024-05-09T12:31:19.215Z,21142.5
2024-05-09T12:32:19.323Z,21100.83
2024-05-09T12:33:17.712Z,21053.33
2024-05-09T12:34:18.992Z,21075.83
2024-05-09T12:35:19.538Z,21088.33
2024-05-09T12:36:18.724Z,21029.17
2024-05-09T12:37:17.973Z,20996.67
2024-05-09T12:38:17.821Z,20995.83
2024-05-09T12:39:19.065Z,20863.33
2024-05-09T12:40:30.642Z,20850.83
2024-05-09T12:41:19.177Z,20770.83
2024-05-09T12:42:27.121Z,20720
2024-05-09T12:43:17.691Z,20633.33
2024-05-09T12:44:18.729Z,20533.33
2024-05-09T12:45:18.399Z,20290
2024-05-09T12:46:17.494Z,20170
2024-05-09T12:47:18.759Z,20380.83
2024-05-09T12:48:19.124Z,20439.17
2024-05-09T12:49:20.092Z,20550
2024-05-09T12:51:18.900Z,20419.17
2024-05-09T12:52:18.487Z,20474.17
2024-05-09T12:53:18.594Z,20449.17